Needles, California
Current Conditions -  °F | °C
As of 10:56 AM on Thursday 27 Nov 2014 (Local Time) from KEED Reporting Station
Clear Clear  
Wind Chill: 71°   Ceiling: Unl
Heat Index: 71°   Visibility: 10mi
Dew Point: 21°   Wind: 6mph
Humidity: 15%   Direction: 360°N
Pressure: 30.21"   Gusts: NA
Location:  34.84°N, 114.6°W
Report Text: KEED 271856Z AUTO 36005KT 10SM CLR 22/M06 A3021 RMK AO2 SLP213 T02171061 $
Loading
Personal Weather Stations






























Interactive Weather Map New forecast layout! Learn more

10-Day Weather Forecast

Advertisements
Track Severe Weather on mobile